Latest METARs, TAFs and NOTAMs for SKCL


---------------------------------------------------------------------------
	(OBSERVATIONS)
SKCL 030000Z 33008KT 9999 FEW030 BKN300 25/19 A2986=
SKCL 022300Z 34007KT 9999 FEW020TCU SCT300 27/19 A2982 RMK TCU/
    E/SE=
SKCL 022200Z 32008KT 9999 SCT025 29/19 A2981=
---------------------------------------------------------------------------
	(TERMINAL AREA FORECAST)
SKCL 022300Z 0300/0324 01007KT 9999 SCT020 SCT250
    TEMPO 0302/0306 9000 VCSH SCT015TCU
    TEMPO 0307/0311 8000 VCSH SCT015
    BECMG 0314/0316 VRB02 SCT022
    TEMPO 0319/0322 30010KT SCT020TCU TX30/0319Z TN19/0310Z=
---------------------------------------------------------------------------
	(NOTAMS)


SKCL A0059/15 FLIGHT PLAN PROCESSING AND FILING FPL LTD DUE TO
    FAILURE CLO FDP. 08 JAN 15:30 2015 UNTIL 08 APR 23:59 2015
    ESTIMATED. CREATED: 08 JAN 15:31 2015

SKCL A0106/15 TWY A,B,C,C1,C2,D,E,F,G WIP, EXER CTN. H24, 14
    JAN 20:10 2015 UNTIL 30 APR 23:59 2015. CREATED: 14 JAN 20:24
    2015

SKCL A0108/15 RWY 01/19 TURNING BAY LTD, ACFT PROHIBITED PARALLEL
    OR ONE SURPASSES THE OTHER ACFT, EXER CTN. H24, 14 JAN 20:55
    2015 UNTIL 30 APR 23:59 2015. CREATED: 14 JAN 21:01 2015

SKCL A0109/15 APRON, CARGO APRON AND DECONGESTION APRON WIP,
    EXER CTN. H24, 14 JAN 21:15 2015 UNTIL 30 APR 23:59 2015.
    CREATED: 14 JAN 21:15 2015

SKCL A0156/15 DLY BTN 1100-1300 AND 0130-0500 NO FLT TRAINING
    RWY 01/19 ARE ALLOWED, HR INDICATED? EXC SAT AND SUN REF.
    AIP COLOMBIA AD 2 SKCL 3 ITEM 20. 21 JAN 16:20 2015 UNTIL
    PERM. CREATED: 01 FEB 11:59 2015

SKCL A0248/15 FIRE FIGHTING AND RESCUE SERVICE CHG TO CAT 8.
    REMARKS: TOTAL CAPACITY OF DISCHARGE 14950 LT/MIN REF. AIP
    COLOMBIA SKCL AD 2.6. 02 FEB 21:00 2015 UNTIL PERM. CREATED:
    01 MAR 05:52 2015

SKCL A0283/15 SEQUENCED FLG LGT RWY 01 U/S. 04 FEB 23:10 2015
    UNTIL 04 MAY 23:59 2015 ESTIMATED. CREATED: 04 FEB 23:10
    2015

SKCL A0344/15 AMHS SUBJECT TO INTERRUPTION. 10 FEB 12:15 2015
    UNTIL 13 MAY 23:59 2015 ESTIMATED. CREATED: 10 FEB 12:20
    2015

SKCL A0417/15 MOV AREA NO VERTICAL SIGNALLING, EXER CTN. H24,
    18 FEB 22:55 2015 UNTIL 31 MAY 11:00 2015. CREATED: 18 FEB
    22:57 2015

SKCL V0003/15 [DOD PROCEDURAL NOTAM] INSTRUMENT APPROACH PROCEDURE
    NOT AUTHORIZED: ILS RWY 01 AMDT 1, VOR RWY 19 ORIG, ANKIN
    5A, 5B DEP, BUN 6A DEP, BUN 6C DEP NOT AUTHORIZED UFN. 12
    JAN 15:31 2015 UNTIL 30 APR 23:59 2015. CREATED: 12 JAN 15:33
    2015

---------------------------------------------------------------------------